sensor_id;sensor_type;location;lat;lon;timestamp;pressure;altitude;pressure_sealevel;temperature
20490;BMP280;10403;54.092;12.122;2023-11-19T00:00:09;101527.63;;;6.31
20490;BMP280;10403;54.092;12.122;2023-11-19T00:02:41;101482.38;;;6.18
20490;BMP280;10403;54.092;12.122;2023-11-19T00:05:10;101467.75;;;6.23
20490;BMP280;10403;54.092;12.122;2023-11-19T00:07:41;101459.91;;;6.20
20490;BMP280;10403;54.092;12.122;2023-11-19T00:10:14;101469.59;;;6.30
20490;BMP280;10403;54.092;12.122;2023-11-19T00:12:47;101436.56;;;6.22
20490;BMP280;10403;54.092;12.122;2023-11-19T00:15:17;101371.06;;;5.85
20490;BMP280;10403;54.092;12.122;2023-11-19T00:17:47;101453.09;;;6.28
20490;BMP280;10403;54.092;12.122;2023-11-19T00:20:18;101438.28;;;6.21
20490;BMP280;10403;54.092;12.122;2023-11-19T00:22:46;101391.16;;;5.96
20490;BMP280;10403;54.092;12.122;2023-11-19T00:25:18;101441.81;;;6.25
20490;BMP280;10403;54.092;12.122;2023-11-19T00:27:45;101437.47;;;6.25
20490;BMP280;10403;54.092;12.122;2023-11-19T00:30:14;101433.16;;;6.26
20490;BMP280;10403;54.092;12.122;2023-11-19T00:32:42;101427.97;;;6.26
20490;BMP280;10403;54.092;12.122;2023-11-19T00:35:09;101428.00;;;6.30
20490;BMP280;10403;54.092;12.122;2023-11-19T00:37:37;101413.19;;;6.23
20490;BMP280;10403;54.092;12.122;2023-11-19T00:40:05;101407.22;;;6.30
20490;BMP280;10403;54.092;12.122;2023-11-19T00:42:33;101389.91;;;6.31
20490;BMP280;10403;54.092;12.122;2023-11-19T00:45:00;101379.47;;;6.28
20490;BMP280;10403;54.092;12.122;2023-11-19T00:47:28;101383.91;;;6.37
20490;BMP280;10403;54.092;12.122;2023-11-19T00:49:57;101377.88;;;6.38
20490;BMP280;10403;54.092;12.122;2023-11-19T00:52:24;101356.22;;;6.36
20490;BMP280;10403;54.092;12.122;2023-11-19T00:54:51;101351.00;;;6.34
20490;BMP280;10403;54.092;12.122;2023-11-19T00:57:18;101339.69;;;6.32
20490;BMP280;10403;54.092;12.122;2023-11-19T00:59:45;101344.03;;;6.31
20490;BMP280;10403;54.092;12.122;2023-11-19T01:02:14;101324.03;;;6.26
20490;BMP280;10403;54.092;12.122;2023-11-19T01:04:42;101304.00;;;6.19
20490;BMP280;10403;54.092;12.122;2023-11-19T01:07:09;101305.84;;;6.26
20490;BMP280;10403;54.092;12.122;2023-11-19T01:09:42;101312.84;;;6.31
20490;BMP280;10403;54.092;12.122;2023-11-19T01:12:10;101301.53;;;6.28
20490;BMP280;10403;54.092;12.122;2023-11-19T01:14:38;101298.06;;;6.27
20490;BMP280;10403;54.092;12.122;2023-11-19T01:17:05;101286.81;;;6.30
20490;BMP280;10403;54.092;12.122;2023-11-19T01:19:33;101271.22;;;6.28
20490;BMP280;10403;54.092;12.122;2023-11-19T01:22:01;101264.16;;;6.18
20490;BMP280;10403;54.092;12.122;2023-11-19T01:24:28;101281.59;;;6.25
20490;BMP280;10403;54.092;12.122;2023-11-19T01:26:55;101259.84;;;6.16
20490;BMP280;10403;54.092;12.122;2023-11-19T01:29:24;101254.63;;;6.14
20490;BMP280;10403;54.092;12.122;2023-11-19T01:31:52;101258.97;;;6.18
20490;BMP280;10403;54.092;12.122;2023-11-19T01:34:19;101267.66;;;6.20
20490;BMP280;10403;54.092;12.122;2023-11-19T01:36:47;101264.16;;;6.18
20490;BMP280;10403;54.092;12.122;2023-11-19T01:39:16;101267.63;;;6.17
20490;BMP280;10403;54.092;12.122;2023-11-19T01:41:43;101254.66;;;6.19
20490;BMP280;10403;54.092;12.122;2023-11-19T01:44:11;101256.38;;;6.18
20490;BMP280;10403;54.092;12.122;2023-11-19T01:46:44;101240.78;;;6.18
20490;BMP280;10403;54.092;12.122;2023-11-19T01:49:15;101235.59;;;6.17
20490;BMP280;10403;54.092;12.122;2023-11-19T01:51:43;101216.50;;;6.13
20490;BMP280;10403;54.092;12.122;2023-11-19T01:54:11;101211.31;;;6.13
20490;BMP280;10403;54.092;12.122;2023-11-19T01:56:40;101193.06;;;6.10
20490;BMP280;10403;54.092;12.122;2023-11-19T01:59:10;101188.72;;;6.08
20490;BMP280;10403;54.092;12.122;2023-11-19T02:01:38;101174.00;;;6.08
20490;BMP280;10403;54.092;12.122;2023-11-19T02:04:08;101163.63;;;6.08
20490;BMP280;10403;54.092;12.122;2023-11-19T02:06:41;101152.38;;;6.06
20490;BMP280;10403;54.092;12.122;2023-11-19T02:09:09;101146.28;;;6.06
20490;BMP280;10403;54.092;12.122;2023-11-19T02:11:40;101141.97;;;6.08
20490;BMP280;10403;54.092;12.122;2023-11-19T02:14:07;101141.09;;;6.09
20490;BMP280;10403;54.092;12.122;2023-11-19T02:16:34;101133.28;;;6.07
20490;BMP280;10403;54.092;12.122;2023-11-19T02:19:02;101121.16;;;6.03
20490;BMP280;10403;54.092;12.122;2023-11-19T02:21:29;101134.22;;;6.11
20490;BMP280;10403;54.092;12.122;2023-11-19T02:23:56;101129.88;;;6.11
20490;BMP280;10403;54.092;12.122;2023-11-19T02:26:59;101112.56;;;6.10
20490;BMP280;10403;54.092;12.122;2023-11-19T02:29:29;101099.56;;;6.10
20490;BMP280;10403;54.092;12.122;2023-11-19T02:31:56;101088.31;;;6.07
20490;BMP280;10403;54.092;12.122;2023-11-19T02:34:23;101062.28;;;6.02
20490;BMP280;10403;54.092;12.122;2023-11-19T02:36:50;101064.91;;;6.08
20490;BMP280;10403;54.092;12.122;2023-11-19T02:39:17;101062.34;;;6.10
20490;BMP280;10403;54.092;12.122;2023-11-19T02:41:48;101044.13;;;6.05
20490;BMP280;10403;54.092;12.122;2023-11-19T02:44:19;101031.13;;;6.02
20490;BMP280;10403;54.092;12.122;2023-11-19T02:46:46;101020.72;;;6.02
20490;BMP280;10403;54.092;12.122;2023-11-19T02:49:15;101026.84;;;6.09
20490;BMP280;10403;54.092;12.122;2023-11-19T02:51:42;101017.31;;;6.08
20490;BMP280;10403;54.092;12.122;2023-11-19T02:54:10;101003.47;;;6.06
20490;BMP280;10403;54.092;12.122;2023-11-19T02:56:37;101002.59;;;6.08
20490;BMP280;10403;54.092;12.122;2023-11-19T02:59:05;100992.19;;;6.08
20490;BMP280;10403;54.092;12.122;2023-11-19T03:01:42;100990.50;;;6.10
20490;BMP280;10403;54.092;12.122;2023-11-19T03:04:11;100982.69;;;6.09
20490;BMP280;10403;54.092;12.122;2023-11-19T03:06:39;100980.09;;;6.10
20490;BMP280;10403;54.092;12.122;2023-11-19T03:09:06;100974.97;;;6.15
20490;BMP280;10403;54.092;12.122;2023-11-19T03:11:37;100962.81;;;6.12
20490;BMP280;10403;54.092;12.122;2023-11-19T03:14:05;100964.56;;;6.15
20490;BMP280;10403;54.092;12.122;2023-11-19T03:16:32;100938.56;;;6.10
20490;BMP280;10403;54.092;12.122;2023-11-19T03:18:59;100942.94;;;6.16
20490;BMP280;10403;54.092;12.122;2023-11-19T03:21:30;100936.88;;;6.15
20490;BMP280;10403;54.092;12.122;2023-11-19T03:23:58;100917.81;;;6.13
20490;BMP280;10403;54.092;12.122;2023-11-19T03:26:28;100929.09;;;6.18
20490;BMP280;10403;54.092;12.122;2023-11-19T03:28:55;100927.34;;;6.17
20490;BMP280;10403;54.092;12.122;2023-11-19T03:31:24;100920.44;;;6.19
20490;BMP280;10403;54.092;12.122;2023-11-19T03:33:52;100921.31;;;6.21
20490;BMP280;10403;54.092;12.122;2023-11-19T03:36:21;100921.31;;;6.21
20490;BMP280;10403;54.092;12.122;2023-11-19T03:38:49;100915.25;;;6.19
20490;BMP280;10403;54.092;12.122;2023-11-19T03:41:35;100910.09;;;6.24
20490;BMP280;10403;54.092;12.122;2023-11-19T03:44:05;100890.97;;;6.17
20490;BMP280;10403;54.092;12.122;2023-11-19T03:46:32;100891.06;;;6.26
20490;BMP280;10403;54.092;12.122;2023-11-19T03:49:00;100871.09;;;6.22
20490;BMP280;10403;54.092;12.122;2023-11-19T03:51:27;100882.41;;;6.30
20490;BMP280;10403;54.092;12.122;2023-11-19T03:53:54;100863.31;;;6.22
20490;BMP280;10403;54.092;12.122;2023-11-19T03:56:21;100866.81;;;6.29
20490;BMP280;10403;54.092;12.122;2023-11-19T03:58:49;100865.06;;;6.28
20490;BMP280;10403;54.092;12.122;2023-11-19T04:09:10;100839.09;;;6.23
20490;BMP280;10403;54.092;12.122;2023-11-19T04:11:37;100824.31;;;6.19
20490;BMP280;10403;54.092;12.122;2023-11-19T04:14:04;100831.31;;;6.26
20490;BMP280;10403;54.092;12.122;2023-11-19T04:16:31;100818.31;;;6.26
20490;BMP280;10403;54.092;12.122;2023-11-19T04:18:58;100826.97;;;6.27
20490;BMP280;10403;54.092;12.122;2023-11-19T04:21:25;100818.31;;;6.26
20490;BMP280;10403;54.092;12.122;2023-11-19T04:23:53;100808.75;;;6.22
20490;BMP280;10403;54.092;12.122;2023-11-19T04:26:21;100797.53;;;6.23
20490;BMP280;10403;54.092;12.122;2023-11-19T04:28:49;100809.66;;;6.29
20490;BMP280;10403;54.092;12.122;2023-11-19T04:31:16;100789.75;;;6.29
20490;BMP280;10403;54.092;12.122;2023-11-19T04:33:43;100775.88;;;6.30
20490;BMP280;10403;54.092;12.122;2023-11-19T04:36:11;100765.50;;;6.30
20490;BMP280;10403;54.092;12.122;2023-11-19T04:38:38;100749.06;;;6.31
20490;BMP280;10403;54.092;12.122;2023-11-19T04:41:06;100739.53;;;6.30
20490;BMP280;10403;54.092;12.122;2023-11-19T04:43:33;100737.81;;;6.32
20490;BMP280;10403;54.092;12.122;2023-11-19T04:46:04;100752.53;;;6.34
20490;BMP280;10403;54.092;12.122;2023-11-19T04:48:31;100764.66;;;6.33
20490;BMP280;10403;54.092;12.122;2023-11-19T04:51:08;100790.66;;;6.36
20490;BMP280;10403;54.092;12.122;2023-11-19T04:53:38;100777.66;;;6.35
20490;BMP280;10403;54.092;12.122;2023-11-19T04:56:11;100756.00;;;6.40
20490;BMP280;10403;54.092;12.122;2023-11-19T04:58:40;100724.84;;;6.36
20490;BMP280;10403;54.092;12.122;2023-11-19T05:01:14;100730.88;;;6.38
20490;BMP280;10403;54.092;12.122;2023-11-19T05:03:44;100706.63;;;6.37
20490;BMP280;10403;54.092;12.122;2023-11-19T05:06:12;100692.75;;;6.29
20490;BMP280;10403;54.092;12.122;2023-11-19T05:08:39;100708.38;;;6.34
20490;BMP280;10403;54.092;12.122;2023-11-19T05:11:07;100722.22;;;6.36
20490;BMP280;10403;54.092;12.122;2023-11-19T05:13:34;100731.75;;;6.37
20490;BMP280;10403;54.092;12.122;2023-11-19T05:16:01;100727.41;;;6.37
20490;BMP280;10403;54.092;12.122;2023-11-19T05:18:28;100728.28;;;6.38
20490;BMP280;10403;54.092;12.122;2023-11-19T05:20:55;100713.56;;;6.41
20490;BMP280;10403;54.092;12.122;2023-11-19T05:23:22;100678.94;;;6.41
20490;BMP280;10403;54.092;12.122;2023-11-19T05:25:49;100696.25;;;6.39
20490;BMP280;10403;54.092;12.122;2023-11-19T05:28:16;100719.63;;;6.39
20490;BMP280;10403;54.092;12.122;2023-11-19T05:30:43;100699.72;;;6.35
20490;BMP280;10403;54.092;12.122;2023-11-19T05:33:11;100680.66;;;6.42
20490;BMP280;10403;54.092;12.122;2023-11-19T05:35:38;100650.34;;;6.41
20490;BMP280;10403;54.092;12.122;2023-11-19T05:38:06;100646.00;;;6.40
20490;BMP280;10403;54.092;12.122;2023-11-19T05:40:33;100650.34;;;6.39
20490;BMP280;10403;54.092;12.122;2023-11-19T05:43:00;100630.41;;;6.37
20490;BMP280;10403;54.092;12.122;2023-11-19T05:45:27;100643.41;;;6.37
20490;BMP280;10403;54.092;12.122;2023-11-19T05:47:54;100666.78;;;6.37
20490;BMP280;10403;54.092;12.122;2023-11-19T05:50:22;100685.88;;;6.43
20490;BMP280;10403;54.092;12.122;2023-11-19T05:52:49;100691.06;;;6.45
20490;BMP280;10403;54.092;12.122;2023-11-19T05:55:16;100684.13;;;6.47
20490;BMP280;10403;54.092;12.122;2023-11-19T05:57:43;100669.41;;;6.47
20490;BMP280;10403;54.092;12.122;2023-11-19T06:00:13;100618.31;;;6.42
20490;BMP280;10403;54.092;12.122;2023-11-19T06:02:42;100593.19;;;6.42
20490;BMP280;10403;54.092;12.122;2023-11-19T06:05:10;100597.53;;;6.45
20490;BMP280;10403;54.092;12.122;2023-11-19T06:07:37;100596.66;;;6.43
20490;BMP280;10403;54.092;12.122;2023-11-19T06:10:06;100586.25;;;6.41
20490;BMP280;10403;54.092;12.122;2023-11-19T06:12:37;100607.91;;;6.40
20490;BMP280;10403;54.092;12.122;2023-11-19T06:15:06;100609.66;;;6.40
20490;BMP280;10403;54.092;12.122;2023-11-19T06:17:35;100620.91;;;6.42
20490;BMP280;10403;54.092;12.122;2023-11-19T06:20:04;100609.66;;;6.40
20490;BMP280;10403;54.092;12.122;2023-11-19T06:22:32;100612.25;;;6.41
20490;BMP280;10403;54.092;12.122;2023-11-19T06:24:59;100613.97;;;6.42
20490;BMP280;10403;54.092;12.122;2023-11-19T06:27:27;100612.25;;;6.44
20490;BMP280;10403;54.092;12.122;2023-11-19T06:29:54;100604.47;;;6.46
20490;BMP280;10403;54.092;12.122;2023-11-19T06:32:21;100597.53;;;6.48
20490;BMP280;10403;54.092;12.122;2023-11-19T06:34:49;100599.25;;;6.49
20490;BMP280;10403;54.092;12.122;2023-11-19T06:37:16;100524.78;;;6.14
20490;BMP280;10403;54.092;12.122;2023-11-19T06:39:43;100577.63;;;6.53
20490;BMP280;10403;54.092;12.122;2023-11-19T06:42:10;100580.22;;;6.53
20490;BMP280;10403;54.092;12.122;2023-11-19T06:44:37;100583.69;;;6.53
20490;BMP280;10403;54.092;12.122;2023-11-19T06:47:05;100592.34;;;6.55
20490;BMP280;10403;54.092;12.122;2023-11-19T06:49:33;100597.53;;;6.55
20490;BMP280;10403;54.092;12.122;2023-11-19T06:52:00;100600.13;;;6.54
20490;BMP280;10403;54.092;12.122;2023-11-19T06:54:27;100613.09;;;6.57
20490;BMP280;10403;54.092;12.122;2023-11-19T06:56:54;100620.03;;;6.58
20490;BMP280;10403;54.092;12.122;2023-11-19T06:59:22;100625.25;;;6.58
20490;BMP280;10403;54.092;12.122;2023-11-19T07:01:49;100616.59;;;6.56
20490;BMP280;10403;54.092;12.122;2023-11-19T07:04:16;100621.78;;;6.62
20490;BMP280;10403;54.092;12.122;2023-11-19T07:06:43;100620.06;;;6.61
20490;BMP280;10403;54.092;12.122;2023-11-19T07:09:11;100616.59;;;6.62
20490;BMP280;10403;54.092;12.122;2023-11-19T07:11:41;100594.94;;;6.52
20490;BMP280;10403;54.092;12.122;2023-11-19T07:14:09;100623.50;;;6.60
20490;BMP280;10403;54.092;12.122;2023-11-19T07:16:37;100611.38;;;6.60
20490;BMP280;10403;54.092;12.122;2023-11-19T07:19:05;100606.19;;;6.62
20490;BMP280;10403;54.092;12.122;2023-11-19T07:21:33;100595.78;;;6.62
20490;BMP280;10403;54.092;12.122;2023-11-19T07:24:02;100589.75;;;6.63
20490;BMP280;10403;54.092;12.122;2023-11-19T07:26:29;100600.13;;;6.63
20490;BMP280;10403;54.092;12.122;2023-11-19T07:28:56;100588.88;;;6.62
20490;BMP280;10403;54.092;12.122;2023-11-19T07:31:24;100581.06;;;6.65
20490;BMP280;10403;54.092;12.122;2023-11-19T07:33:51;100575.88;;;6.62
20490;BMP280;10403;54.092;12.122;2023-11-19T07:36:18;100563.75;;;6.64
20490;BMP280;10403;54.092;12.122;2023-11-19T07:38:46;100566.34;;;6.63
20490;BMP280;10403;54.092;12.122;2023-11-19T07:41:15;100553.34;;;6.63
20490;BMP280;10403;54.092;12.122;2023-11-19T07:43:45;100559.41;;;6.62
20490;BMP280;10403;54.092;12.122;2023-11-19T07:46:17;100561.16;;;6.61
20490;BMP280;10403;54.092;12.122;2023-11-19T07:48:48;100556.81;;;6.60
20490;BMP280;10403;54.092;12.122;2023-11-19T07:51:15;100546.41;;;6.62
20490;BMP280;10403;54.092;12.122;2023-11-19T07:53:42;100535.16;;;6.63
20490;BMP280;10403;54.092;12.122;2023-11-19T07:56:10;100536.03;;;6.63
20490;BMP280;10403;54.092;12.122;2023-11-19T07:58:37;100530.81;;;6.60
20490;BMP280;10403;54.092;12.122;2023-11-19T08:01:05;100533.44;;;6.62
20490;BMP280;10403;54.092;12.122;2023-11-19T08:03:33;100527.34;;;6.63
20490;BMP280;10403;54.092;12.122;2023-11-19T08:06:04;100507.44;;;6.65
20490;BMP280;10403;54.092;12.122;2023-11-19T08:08:31;100507.44;;;6.65
20490;BMP280;10403;54.092;12.122;2023-11-19T08:11:00;100507.44;;;6.65
20490;BMP280;10403;54.092;12.122;2023-11-19T08:13:27;100503.94;;;6.66
20490;BMP280;10403;54.092;12.122;2023-11-19T08:15:55;100498.75;;;6.60
20490;BMP280;10403;54.092;12.122;2023-11-19T08:18:22;100489.25;;;6.50
20490;BMP280;10403;54.092;12.122;2023-11-19T08:20:49;100495.28;;;6.67
20490;BMP280;10403;54.092;12.122;2023-11-19T08:23:20;100489.22;;;6.71
20490;BMP280;10403;54.092;12.122;2023-11-19T08:25:48;100485.75;;;6.74
20490;BMP280;10403;54.092;12.122;2023-11-19T08:28:15;100478.81;;;6.74
20490;BMP280;10403;54.092;12.122;2023-11-19T08:30:42;100476.22;;;6.76
20490;BMP280;10403;54.092;12.122;2023-11-19T08:33:11;100476.19;;;6.77
20490;BMP280;10403;54.092;12.122;2023-11-19T08:35:38;100464.06;;;6.78
20490;BMP280;10403;54.092;12.122;2023-11-19T08:38:05;100476.19;;;6.80
20490;BMP280;10403;54.092;12.122;2023-11-19T08:40:32;100460.59;;;6.85
20490;BMP280;10403;54.092;12.122;2023-11-19T08:43:00;100445.81;;;6.87
20490;BMP280;10403;54.092;12.122;2023-11-19T08:45:27;100444.13;;;6.84
20490;BMP280;10403;54.092;12.122;2023-11-19T08:47:54;100450.19;;;6.83
20490;BMP280;10403;54.092;12.122;2023-11-19T08:50:22;100451.91;;;6.86
20490;BMP280;10403;54.092;12.122;2023-11-19T08:52:49;100450.16;;;6.86
20490;BMP280;10403;54.092;12.122;2023-11-19T08:55:16;100451.91;;;6.90
20490;BMP280;10403;54.092;12.122;2023-11-19T08:57:44;100445.81;;;6.88
20490;BMP280;10403;54.092;12.122;2023-11-19T09:00:12;100445.81;;;6.93
20490;BMP280;10403;54.092;12.122;2023-11-19T09:02:41;100433.69;;;6.92
20490;BMP280;10403;54.092;12.122;2023-11-19T09:05:10;100425.03;;;6.88
20490;BMP280;10403;54.092;12.122;2023-11-19T09:07:37;100431.97;;;6.91
20490;BMP280;10403;54.092;12.122;2023-11-19T09:10:05;100433.66;;;6.96
20490;BMP280;10403;54.092;12.122;2023-11-19T09:12:32;100442.31;;;7.00
20490;BMP280;10403;54.092;12.122;2023-11-19T09:14:59;100444.06;;;7.02
20490;BMP280;10403;54.092;12.122;2023-11-19T09:17:26;100449.22;;;7.05
20490;BMP280;10403;54.092;12.122;2023-11-19T09:19:54;100439.69;;;7.06
20490;BMP280;10403;54.092;12.122;2023-11-19T09:22:21;100446.59;;;7.09
20490;BMP280;10403;54.092;12.122;2023-11-19T09:24:48;100441.41;;;7.09
20490;BMP280;10403;54.092;12.122;2023-11-19T09:27:15;100446.59;;;7.12
20490;BMP280;10403;54.092;12.122;2023-11-19T09:29:42;100431.88;;;7.06
20490;BMP280;10403;54.092;12.122;2023-11-19T09:32:10;100438.75;;;7.16
20490;BMP280;10403;54.092;12.122;2023-11-19T09:34:37;100433.56;;;7.18
20490;BMP280;10403;54.092;12.122;2023-11-19T09:37:04;100431.81;;;7.18
20490;BMP280;10403;54.092;12.122;2023-11-19T09:39:48;100421.41;;;7.21
20490;BMP280;10403;54.092;12.122;2023-11-19T09:42:15;100427.44;;;7.26
20490;BMP280;10403;54.092;12.122;2023-11-19T09:44:43;100418.75;;;7.26
20490;BMP280;10403;54.092;12.122;2023-11-19T09:47:11;100417.00;;;7.31
20490;BMP280;10403;54.092;12.122;2023-11-19T09:49:41;100414.41;;;7.28
20490;BMP280;10403;54.092;12.122;2023-11-19T09:52:08;100417.84;;;7.36
20490;BMP280;10403;54.092;12.122;2023-11-19T09:54:35;100423.91;;;7.38
20490;BMP280;10403;54.092;12.122;2023-11-19T09:57:04;100420.44;;;7.40
20490;BMP280;10403;54.092;12.122;2023-11-19T09:59:33;100416.03;;;7.46
20490;BMP280;10403;54.092;12.122;2023-11-19T10:02:00;100416.91;;;7.49
20490;BMP280;10403;54.092;12.122;2023-11-19T10:04:30;100413.41;;;7.53
20490;BMP280;10403;54.092;12.122;2023-11-19T10:06:59;100413.38;;;7.56
20490;BMP280;10403;54.092;12.122;2023-11-19T10:09:26;100409.88;;;7.60
20490;BMP280;10403;54.092;12.122;2023-11-19T10:11:54;100399.47;;;7.62
20490;BMP280;10403;54.092;12.122;2023-11-19T10:14:23;100405.47;;;7.67
20490;BMP280;10403;54.092;12.122;2023-11-19T10:16:51;100394.19;;;7.72
20490;BMP280;10403;54.092;12.122;2023-11-19T10:19:21;100402.78;;;7.80
20490;BMP280;10403;54.092;12.122;2023-11-19T10:21:49;100397.53;;;7.84
20490;BMP280;10403;54.092;12.122;2023-11-19T10:24:16;100397.50;;;7.90
20490;BMP280;10403;54.092;12.122;2023-11-19T10:26:46;100389.66;;;7.93
20490;BMP280;10403;54.092;12.122;2023-11-19T10:29:13;100327.47;;;7.59
20490;BMP280;10403;54.092;12.122;2023-11-19T10:31:56;100395.69;;;7.98
20490;BMP280;10403;54.092;12.122;2023-11-19T10:34:44;100393.88;;;8.04
20490;BMP280;10403;54.092;12.122;2023-11-19T10:37:30;100388.66;;;8.06
20490;BMP280;10403;54.092;12.122;2023-11-19T10:39:59;100386.91;;;8.08
20490;BMP280;10403;54.092;12.122;2023-11-19T10:42:27;100394.63;;;8.15
20490;BMP280;10403;54.092;12.122;2023-11-19T10:44:54;100397.22;;;8.17
20490;BMP280;10403;54.092;12.122;2023-11-19T10:47:23;100388.50;;;8.21
20490;BMP280;10403;54.092;12.122;2023-11-19T10:49:53;100385.84;;;8.24
20490;BMP280;10403;54.092;12.122;2023-11-19T10:52:21;100384.97;;;8.31
20490;BMP280;10403;54.092;12.122;2023-11-19T10:54:50;100378.81;;;8.35
20490;BMP280;10403;54.092;12.122;2023-11-19T10:57:21;100365.84;;;8.32
20490;BMP280;10403;54.092;12.122;2023-11-19T10:59:52;100385.66;;;8.45
20490;BMP280;10403;54.092;12.122;2023-11-19T11:02:25;100374.34;;;8.48
20490;BMP280;10403;54.092;12.122;2023-11-19T11:04:55;100368.25;;;8.49
20490;BMP280;10403;54.092;12.122;2023-11-19T11:07:22;100373.28;;;8.64
20490;BMP280;10403;54.092;12.122;2023-11-19T11:10:02;100371.53;;;8.66
20490;BMP280;10403;54.092;12.122;2023-11-19T11:12:36;100375.75;;;8.76
20490;BMP280;10403;54.092;12.122;2023-11-19T11:15:07;100379.13;;;8.83
20490;BMP280;10403;54.092;12.122;2023-11-19T11:17:36;100375.59;;;8.87
20490;BMP280;10403;54.092;12.122;2023-11-19T11:20:05;100365.03;;;8.96
20490;BMP280;10403;54.092;12.122;2023-11-19T11:23:02;100368.44;;;9.01
20490;BMP280;10403;54.092;12.122;2023-11-19T11:28:44;100364.72;;;9.20
20490;BMP280;10403;54.092;12.122;2023-11-19T11:31:47;100373.28;;;9.28
20490;BMP280;10403;54.092;12.122;2023-11-19T11:37:57;100373.00;;;9.47
20490;BMP280;10403;54.092;12.122;2023-11-19T11:40:21;100365.09;;;9.51
20490;BMP280;10403;54.092;12.122;2023-11-19T11:42:50;100367.53;;;9.62
20490;BMP280;10403;54.092;12.122;2023-11-19T11:45:36;100377.91;;;9.68
20490;BMP280;10403;54.092;12.122;2023-11-19T11:48:19;100369.94;;;9.74
20490;BMP280;10403;54.092;12.122;2023-11-19T11:50:56;100372.44;;;9.80
20490;BMP280;10403;54.092;12.122;2023-11-19T11:53:25;100380.13;;;9.89
20490;BMP280;10403;54.092;12.122;2023-11-19T11:55:54;100374.78;;;9.97
20490;BMP280;10403;54.092;12.122;2023-11-19T11:58:31;100374.66;;;10.03
20490;BMP280;10403;54.092;12.122;2023-11-19T12:01:01;100382.31;;;10.14
20490;BMP280;10403;54.092;12.122;2023-11-19T12:03:29;100386.53;;;10.22
20490;BMP280;10403;54.092;12.122;2023-11-19T12:05:58;100375.94;;;10.30
20490;BMP280;10403;54.092;12.122;2023-11-19T12:08:28;100379.25;;;10.39
20490;BMP280;10403;54.092;12.122;2023-11-19T12:10:58;100374.78;;;10.46
20490;BMP280;10403;54.092;12.122;2023-11-19T12:13:54;100382.47;;;10.54
20490;BMP280;10403;54.092;12.122;2023-11-19T12:16:23;100365.03;;;10.54
20490;BMP280;10403;54.092;12.122;2023-11-19T12:18:50;100370.97;;;10.62
20490;BMP280;10403;54.092;12.122;2023-11-19T12:21:29;100383.00;;;10.69
20490;BMP280;10403;54.092;12.122;2023-11-19T12:23:58;100375.19;;;10.68
20490;BMP280;10403;54.092;12.122;2023-11-19T12:26:35;100390.63;;;10.82
20490;BMP280;10403;54.092;12.122;2023-11-19T12:29:03;100379.22;;;10.86
20490;BMP280;10403;54.092;12.122;2023-11-19T12:31:35;100376.63;;;10.84
20490;BMP280;10403;54.092;12.122;2023-11-19T12:34:07;100386.81;;;10.96
20490;BMP280;10403;54.092;12.122;2023-11-19T12:36:39;100392.81;;;11.01
20490;BMP280;10403;54.092;12.122;2023-11-19T12:39:07;100373.69;;;10.98
20490;BMP280;10403;54.092;12.122;2023-11-19T12:41:50;100377.91;;;11.05
20490;BMP280;10403;54.092;12.122;2023-11-19T12:44:18;100387.34;;;11.12
20490;BMP280;10403;54.092;12.122;2023-11-19T12:46:45;100379.50;;;11.12
20490;BMP280;10403;54.092;12.122;2023-11-19T12:49:12;100384.72;;;11.12
20490;BMP280;10403;54.092;12.122;2023-11-19T12:51:40;100389.94;;;11.13
20490;BMP280;10403;54.092;12.122;2023-11-19T12:54:08;100383.84;;;11.13
20490;BMP280;10403;54.092;12.122;2023-11-19T12:56:35;100396.88;;;11.16
20490;BMP280;10403;54.092;12.122;2023-11-19T12:59:11;100397.75;;;11.15
20490;BMP280;10403;54.092;12.122;2023-11-19T13:01:39;100393.47;;;11.11
20490;BMP280;10403;54.092;12.122;2023-11-19T13:04:18;100379.50;;;11.12
20490;BMP280;10403;54.092;12.122;2023-11-19T13:06:46;100395.91;;;11.19
20490;BMP280;10403;54.092;12.122;2023-11-19T13:09:31;100375.06;;;11.16
20490;BMP280;10403;54.092;12.122;2023-11-19T13:11:58;100368.13;;;11.13
20490;BMP280;10403;54.092;12.122;2023-11-19T13:14:37;100374.78;;;11.26
20490;BMP280;10403;54.092;12.122;2023-11-19T13:17:12;100374.78;;;11.26
20490;BMP280;10403;54.092;12.122;2023-11-19T13:19:40;100365.13;;;11.30
20490;BMP280;10403;54.092;12.122;2023-11-19T13:22:07;100382.50;;;11.34
20490;BMP280;10403;54.092;12.122;2023-11-19T13:24:34;100387.72;;;11.34
20490;BMP280;10403;54.092;12.122;2023-11-19T13:27:02;100376.47;;;11.30
20490;BMP280;10403;54.092;12.122;2023-11-19T13:29:29;100384.31;;;11.30
20490;BMP280;10403;54.092;12.122;2023-11-19T13:31:58;100385.09;;;11.35
20490;BMP280;10403;54.092;12.122;2023-11-19T13:34:27;100391.97;;;11.38
20490;BMP280;10403;54.092;12.122;2023-11-19T13:36:54;100394.75;;;11.32
20490;BMP280;10403;54.092;12.122;2023-11-19T13:39:21;100398.97;;;11.37
20490;BMP280;10403;54.092;12.122;2023-11-19T13:41:50;100413.75;;;11.41
20490;BMP280;10403;54.092;12.122;2023-11-19T13:44:18;100376.47;;;11.30
20490;BMP280;10403;54.092;12.122;2023-11-19T13:46:45;100407.59;;;11.42
20490;BMP280;10403;54.092;12.122;2023-11-19T13:49:14;100411.13;;;11.41
20490;BMP280;10403;54.092;12.122;2023-11-19T13:51:42;100416.34;;;11.41
20490;BMP280;10403;54.092;12.122;2023-11-19T13:54:10;100414.63;;;11.40
20490;BMP280;10403;54.092;12.122;2023-11-19T13:56:37;100406.78;;;11.40
20490;BMP280;10403;54.092;12.122;2023-11-19T13:59:04;100408.66;;;11.35
20490;BMP280;10403;54.092;12.122;2023-11-19T14:01:31;100412.03;;;11.39
20490;BMP280;10403;54.092;12.122;2023-11-19T14:03:58;100398.13;;;11.37
20490;BMP280;10403;54.092;12.122;2023-11-19T14:06:26;100393.03;;;11.31
20490;BMP280;10403;54.092;12.122;2023-11-19T14:08:53;100403.44;;;11.34
20490;BMP280;10403;54.092;12.122;2023-11-19T14:11:20;100407.88;;;11.30
20490;BMP280;10403;54.092;12.122;2023-11-19T14:13:47;100420.94;;;11.32
20490;BMP280;10403;54.092;12.122;2023-11-19T14:16:16;100407.13;;;11.25
20490;BMP280;10403;54.092;12.122;2023-11-19T14:18:43;100419.28;;;11.28